sensor_id;sensor_type;location;lat;lon;timestamp;P1;durP1;ratioP1;P2;durP2;ratioP2
69083;SDS011;56185;48.526;9.044;2024-02-28T00:01:54;21.85;;;12.75;;
69083;SDS011;56185;48.526;9.044;2024-02-28T00:04:20;19.80;;;11.68;;
69083;SDS011;56185;48.526;9.044;2024-02-28T00:06:45;18.40;;;11.40;;
69083;SDS011;56185;48.526;9.044;2024-02-28T00:09:10;22.15;;;12.50;;
69083;SDS011;56185;48.526;9.044;2024-02-28T00:11:36;21.35;;;12.40;;
69083;SDS011;56185;48.526;9.044;2024-02-28T00:14:01;21.98;;;13.60;;
69083;SDS011;56185;48.526;9.044;2024-02-28T00:16:26;21.47;;;13.10;;
69083;SDS011;56185;48.526;9.044;2024-02-28T00:18:54;21.23;;;12.38;;
69083;SDS011;56185;48.526;9.044;2024-02-28T00:21:19;20.93;;;12.37;;
69083;SDS011;56185;48.526;9.044;2024-02-28T00:23:45;20.60;;;12.07;;
69083;SDS011;56185;48.526;9.044;2024-02-28T00:26:11;21.07;;;12.27;;
69083;SDS011;56185;48.526;9.044;2024-02-28T00:28:37;20.92;;;12.95;;
69083;SDS011;56185;48.526;9.044;2024-02-28T00:31:02;21.73;;;12.50;;
69083;SDS011;56185;48.526;9.044;2024-02-28T00:33:28;20.98;;;12.48;;
69083;SDS011;56185;48.526;9.044;2024-02-28T00:35:53;20.77;;;12.63;;
69083;SDS011;56185;48.526;9.044;2024-02-28T00:38:18;19.17;;;12.37;;
69083;SDS011;56185;48.526;9.044;2024-02-28T00:40:43;22.10;;;12.57;;
69083;SDS011;56185;48.526;9.044;2024-02-28T00:43:09;19.70;;;12.30;;
69083;SDS011;56185;48.526;9.044;2024-02-28T00:45:34;19.00;;;12.20;;
69083;SDS011;56185;48.526;9.044;2024-02-28T00:48:02;18.97;;;11.77;;
69083;SDS011;56185;48.526;9.044;2024-02-28T00:50:28;18.90;;;11.90;;
69083;SDS011;56185;48.526;9.044;2024-02-28T00:52:53;19.35;;;12.13;;
69083;SDS011;56185;48.526;9.044;2024-02-28T00:55:18;18.90;;;11.87;;
69083;SDS011;56185;48.526;9.044;2024-02-28T00:57:43;16.67;;;10.77;;
69083;SDS011;56185;48.526;9.044;2024-02-28T01:00:09;19.77;;;11.57;;
69083;SDS011;56185;48.526;9.044;2024-02-28T01:02:35;16.98;;;10.75;;
69083;SDS011;56185;48.526;9.044;2024-02-28T01:05:00;19.47;;;11.93;;
69083;SDS011;56185;48.526;9.044;2024-02-28T01:07:25;18.60;;;11.70;;
69083;SDS011;56185;48.526;9.044;2024-02-28T01:09:50;21.40;;;12.23;;
69083;SDS011;56185;48.526;9.044;2024-02-28T01:12:16;17.67;;;11.13;;
69083;SDS011;56185;48.526;9.044;2024-02-28T01:14:41;18.87;;;10.83;;
69083;SDS011;56185;48.526;9.044;2024-02-28T01:17:06;20.92;;;11.20;;
69083;SDS011;56185;48.526;9.044;2024-02-28T01:19:31;17.42;;;10.98;;
69083;SDS011;56185;48.526;9.044;2024-02-28T01:21:57;19.70;;;11.53;;
69083;SDS011;56185;48.526;9.044;2024-02-28T01:24:23;16.92;;;10.18;;
69083;SDS011;56185;48.526;9.044;2024-02-28T01:26:48;18.85;;;11.73;;
69083;SDS011;56185;48.526;9.044;2024-02-28T01:29:13;16.48;;;10.73;;
69083;SDS011;56185;48.526;9.044;2024-02-28T01:31:39;16.95;;;10.73;;
69083;SDS011;56185;48.526;9.044;2024-02-28T01:34:04;17.43;;;10.57;;
69083;SDS011;56185;48.526;9.044;2024-02-28T01:36:29;18.48;;;11.63;;
69083;SDS011;56185;48.526;9.044;2024-02-28T01:38:55;18.30;;;11.40;;
69083;SDS011;56185;48.526;9.044;2024-02-28T01:41:20;19.30;;;11.10;;
69083;SDS011;56185;48.526;9.044;2024-02-28T01:43:45;18.27;;;10.88;;
69083;SDS011;56185;48.526;9.044;2024-02-28T01:46:26;18.37;;;11.30;;
69083;SDS011;56185;48.526;9.044;2024-02-28T01:48:55;17.05;;;10.48;;
69083;SDS011;56185;48.526;9.044;2024-02-28T01:51:25;15.95;;;10.52;;
69083;SDS011;56185;48.526;9.044;2024-02-28T01:53:51;19.45;;;10.48;;
69083;SDS011;56185;48.526;9.044;2024-02-28T01:56:18;15.68;;;9.95;;
69083;SDS011;56185;48.526;9.044;2024-02-28T01:58:45;16.33;;;10.13;;
69083;SDS011;56185;48.526;9.044;2024-02-28T02:01:12;15.20;;;10.05;;
69083;SDS011;56185;48.526;9.044;2024-02-28T02:03:39;18.30;;;10.85;;
69083;SDS011;56185;48.526;9.044;2024-02-28T02:06:04;20.20;;;10.82;;
69083;SDS011;56185;48.526;9.044;2024-02-28T02:08:30;16.00;;;10.13;;
69083;SDS011;56185;48.526;9.044;2024-02-28T02:10:56;20.05;;;11.55;;
69083;SDS011;56185;48.526;9.044;2024-02-28T02:13:21;16.20;;;10.50;;
69083;SDS011;56185;48.526;9.044;2024-02-28T02:15:46;15.77;;;9.95;;
69083;SDS011;56185;48.526;9.044;2024-02-28T02:18:11;17.50;;;10.67;;
69083;SDS011;56185;48.526;9.044;2024-02-28T02:20:38;15.50;;;10.60;;
69083;SDS011;56185;48.526;9.044;2024-02-28T02:23:08;20.25;;;11.40;;
69083;SDS011;56185;48.526;9.044;2024-02-28T02:25:33;17.05;;;10.75;;
69083;SDS011;56185;48.526;9.044;2024-02-28T02:27:58;17.77;;;10.07;;
69083;SDS011;56185;48.526;9.044;2024-02-28T02:30:24;16.52;;;10.68;;
69083;SDS011;56185;48.526;9.044;2024-02-28T02:32:49;16.60;;;10.73;;
69083;SDS011;56185;48.526;9.044;2024-02-28T02:35:14;17.73;;;10.37;;
69083;SDS011;56185;48.526;9.044;2024-02-28T02:37:43;15.37;;;9.70;;
69083;SDS011;56185;48.526;9.044;2024-02-28T02:40:09;15.15;;;9.15;;
69083;SDS011;56185;48.526;9.044;2024-02-28T02:42:34;16.20;;;10.40;;
69083;SDS011;56185;48.526;9.044;2024-02-28T02:45:00;17.00;;;11.00;;
69083;SDS011;56185;48.526;9.044;2024-02-28T02:47:25;17.88;;;11.00;;
69083;SDS011;56185;48.526;9.044;2024-02-28T02:49:50;19.70;;;11.50;;
69083;SDS011;56185;48.526;9.044;2024-02-28T02:52:15;21.35;;;11.93;;
69083;SDS011;56185;48.526;9.044;2024-02-28T02:54:41;18.83;;;11.43;;
69083;SDS011;56185;48.526;9.044;2024-02-28T02:57:06;20.23;;;12.37;;
69083;SDS011;56185;48.526;9.044;2024-02-28T02:59:31;19.85;;;11.40;;
69083;SDS011;56185;48.526;9.044;2024-02-28T03:01:56;21.57;;;12.20;;
69083;SDS011;56185;48.526;9.044;2024-02-28T03:04:22;19.10;;;11.70;;
69083;SDS011;56185;48.526;9.044;2024-02-28T03:06:47;20.33;;;11.57;;
69083;SDS011;56185;48.526;9.044;2024-02-28T03:09:12;18.57;;;11.73;;
69083;SDS011;56185;48.526;9.044;2024-02-28T03:11:37;18.98;;;11.77;;
69083;SDS011;56185;48.526;9.044;2024-02-28T03:14:02;19.23;;;11.73;;
69083;SDS011;56185;48.526;9.044;2024-02-28T03:16:28;17.77;;;11.27;;
69083;SDS011;56185;48.526;9.044;2024-02-28T03:18:53;18.65;;;11.55;;
69083;SDS011;56185;48.526;9.044;2024-02-28T03:21:18;20.20;;;11.50;;
69083;SDS011;56185;48.526;9.044;2024-02-28T03:23:44;19.63;;;11.13;;
69083;SDS011;56185;48.526;9.044;2024-02-28T03:26:09;20.38;;;11.73;;
69083;SDS011;56185;48.526;9.044;2024-02-28T03:28:34;20.03;;;11.50;;
69083;SDS011;56185;48.526;9.044;2024-02-28T03:30:59;19.33;;;11.53;;
69083;SDS011;56185;48.526;9.044;2024-02-28T03:33:25;20.77;;;12.57;;
69083;SDS011;56185;48.526;9.044;2024-02-28T03:35:50;19.65;;;12.02;;
69083;SDS011;56185;48.526;9.044;2024-02-28T03:38:15;19.25;;;12.05;;
69083;SDS011;56185;48.526;9.044;2024-02-28T03:40:40;20.80;;;12.27;;
69083;SDS011;56185;48.526;9.044;2024-02-28T03:43:06;21.38;;;12.70;;
69083;SDS011;56185;48.526;9.044;2024-02-28T03:45:36;22.80;;;12.17;;
69083;SDS011;56185;48.526;9.044;2024-02-28T03:48:02;20.17;;;11.45;;
69083;SDS011;56185;48.526;9.044;2024-02-28T03:50:27;22.08;;;12.63;;
69083;SDS011;56185;48.526;9.044;2024-02-28T03:52:53;19.83;;;12.17;;
69083;SDS011;56185;48.526;9.044;2024-02-28T03:55:18;18.93;;;12.20;;
69083;SDS011;56185;48.526;9.044;2024-02-28T03:57:46;24.25;;;12.95;;
69083;SDS011;56185;48.526;9.044;2024-02-28T04:00:12;21.25;;;12.98;;
69083;SDS011;56185;48.526;9.044;2024-02-28T04:02:38;21.25;;;12.77;;
69083;SDS011;56185;48.526;9.044;2024-02-28T04:05:03;25.65;;;12.90;;
69083;SDS011;56185;48.526;9.044;2024-02-28T04:07:29;24.42;;;13.02;;
69083;SDS011;56185;48.526;9.044;2024-02-28T04:09:54;22.30;;;12.73;;
69083;SDS011;56185;48.526;9.044;2024-02-28T04:12:19;21.60;;;13.10;;
69083;SDS011;56185;48.526;9.044;2024-02-28T04:14:44;20.77;;;12.77;;
69083;SDS011;56185;48.526;9.044;2024-02-28T04:17:10;22.85;;;13.00;;
69083;SDS011;56185;48.526;9.044;2024-02-28T04:19:35;21.83;;;12.63;;
69083;SDS011;56185;48.526;9.044;2024-02-28T04:22:00;22.10;;;13.17;;
69083;SDS011;56185;48.526;9.044;2024-02-28T04:24:25;20.83;;;12.77;;
69083;SDS011;56185;48.526;9.044;2024-02-28T04:26:50;22.60;;;13.23;;
69083;SDS011;56185;48.526;9.044;2024-02-28T04:29:16;20.73;;;12.33;;
69083;SDS011;56185;48.526;9.044;2024-02-28T04:31:41;21.90;;;12.33;;
69083;SDS011;56185;48.526;9.044;2024-02-28T04:34:06;19.73;;;12.40;;
69083;SDS011;56185;48.526;9.044;2024-02-28T04:36:31;24.27;;;12.97;;
69083;SDS011;56185;48.526;9.044;2024-02-28T04:38:57;19.48;;;12.38;;
69083;SDS011;56185;48.526;9.044;2024-02-28T04:41:22;22.40;;;12.90;;
69083;SDS011;56185;48.526;9.044;2024-02-28T04:43:47;23.40;;;12.87;;
69083;SDS011;56185;48.526;9.044;2024-02-28T04:46:12;21.70;;;13.02;;
69083;SDS011;56185;48.526;9.044;2024-02-28T04:48:38;22.73;;;13.33;;
69083;SDS011;56185;48.526;9.044;2024-02-28T04:51:03;18.48;;;12.00;;
69083;SDS011;56185;48.526;9.044;2024-02-28T04:53:28;21.98;;;12.32;;
69083;SDS011;56185;48.526;9.044;2024-02-28T04:55:53;22.43;;;12.70;;
69083;SDS011;56185;48.526;9.044;2024-02-28T04:58:19;23.97;;;12.93;;
69083;SDS011;56185;48.526;9.044;2024-02-28T05:00:44;22.03;;;13.10;;
69083;SDS011;56185;48.526;9.044;2024-02-28T05:03:09;21.02;;;12.38;;
69083;SDS011;56185;48.526;9.044;2024-02-28T05:05:34;22.67;;;13.50;;
69083;SDS011;56185;48.526;9.044;2024-02-28T05:08:00;21.17;;;12.63;;
69083;SDS011;56185;48.526;9.044;2024-02-28T05:10:25;25.40;;;12.93;;
69083;SDS011;56185;48.526;9.044;2024-02-28T05:12:50;21.93;;;12.50;;
69083;SDS011;56185;48.526;9.044;2024-02-28T05:15:15;21.93;;;12.77;;
69083;SDS011;56185;48.526;9.044;2024-02-28T05:17:40;21.98;;;12.75;;
69083;SDS011;56185;48.526;9.044;2024-02-28T05:20:06;21.15;;;12.63;;
69083;SDS011;56185;48.526;9.044;2024-02-28T05:22:32;22.25;;;12.82;;
69083;SDS011;56185;48.526;9.044;2024-02-28T05:24:57;21.97;;;12.27;;
69083;SDS011;56185;48.526;9.044;2024-02-28T05:27:22;22.42;;;13.23;;
69083;SDS011;56185;48.526;9.044;2024-02-28T05:29:47;20.43;;;12.47;;
69083;SDS011;56185;48.526;9.044;2024-02-28T05:32:13;24.73;;;13.53;;
69083;SDS011;56185;48.526;9.044;2024-02-28T05:34:38;22.13;;;12.57;;
69083;SDS011;56185;48.526;9.044;2024-02-28T05:37:03;22.08;;;12.77;;
69083;SDS011;56185;48.526;9.044;2024-02-28T05:39:28;24.40;;;13.80;;
69083;SDS011;56185;48.526;9.044;2024-02-28T05:41:54;20.80;;;12.60;;
69083;SDS011;56185;48.526;9.044;2024-02-28T05:44:19;23.30;;;12.52;;
69083;SDS011;56185;48.526;9.044;2024-02-28T05:46:44;23.13;;;11.93;;
69083;SDS011;56185;48.526;9.044;2024-02-28T05:49:10;21.93;;;12.73;;
69083;SDS011;56185;48.526;9.044;2024-02-28T05:51:35;20.27;;;12.07;;
69083;SDS011;56185;48.526;9.044;2024-02-28T05:54:00;25.35;;;13.07;;
69083;SDS011;56185;48.526;9.044;2024-02-28T05:56:25;19.77;;;12.43;;
69083;SDS011;56185;48.526;9.044;2024-02-28T05:58:50;21.37;;;12.03;;
69083;SDS011;56185;48.526;9.044;2024-02-28T06:01:16;21.47;;;12.03;;
69083;SDS011;56185;48.526;9.044;2024-02-28T06:03:42;20.20;;;12.20;;
69083;SDS011;56185;48.526;9.044;2024-02-28T06:06:07;22.50;;;12.82;;
69083;SDS011;56185;48.526;9.044;2024-02-28T06:08:33;20.13;;;12.80;;
69083;SDS011;56185;48.526;9.044;2024-02-28T06:10:59;20.90;;;12.90;;
69083;SDS011;56185;48.526;9.044;2024-02-28T06:13:24;22.23;;;12.80;;
69083;SDS011;56185;48.526;9.044;2024-02-28T06:15:49;20.13;;;12.37;;
69083;SDS011;56185;48.526;9.044;2024-02-28T06:18:15;22.87;;;12.60;;
69083;SDS011;56185;48.526;9.044;2024-02-28T06:20:40;19.23;;;11.63;;
69083;SDS011;56185;48.526;9.044;2024-02-28T06:23:05;21.90;;;12.33;;
69083;SDS011;56185;48.526;9.044;2024-02-28T06:25:30;22.20;;;13.37;;
69083;SDS011;56185;48.526;9.044;2024-02-28T06:27:56;20.73;;;12.52;;
69083;SDS011;56185;48.526;9.044;2024-02-28T06:30:21;21.47;;;12.00;;
69083;SDS011;56185;48.526;9.044;2024-02-28T06:32:46;25.30;;;12.55;;
69083;SDS011;56185;48.526;9.044;2024-02-28T06:35:11;22.95;;;11.85;;
69083;SDS011;56185;48.526;9.044;2024-02-28T06:37:37;20.25;;;12.55;;
69083;SDS011;56185;48.526;9.044;2024-02-28T06:40:03;21.13;;;12.60;;
69083;SDS011;56185;48.526;9.044;2024-02-28T06:42:29;22.17;;;12.80;;
69083;SDS011;56185;48.526;9.044;2024-02-28T06:44:54;22.02;;;13.32;;
69083;SDS011;56185;48.526;9.044;2024-02-28T06:47:19;20.50;;;12.20;;
69083;SDS011;56185;48.526;9.044;2024-02-28T06:49:46;20.70;;;11.63;;
69083;SDS011;56185;48.526;9.044;2024-02-28T06:52:11;21.73;;;12.87;;
69083;SDS011;56185;48.526;9.044;2024-02-28T06:54:37;21.45;;;12.35;;
69083;SDS011;56185;48.526;9.044;2024-02-28T06:57:02;20.07;;;11.83;;
69083;SDS011;56185;48.526;9.044;2024-02-28T06:59:27;18.95;;;11.32;;
69083;SDS011;56185;48.526;9.044;2024-02-28T07:01:53;20.02;;;12.18;;
69083;SDS011;56185;48.526;9.044;2024-02-28T07:04:18;18.93;;;11.50;;
69083;SDS011;56185;48.526;9.044;2024-02-28T07:06:43;20.00;;;11.60;;
69083;SDS011;56185;48.526;9.044;2024-02-28T07:09:08;17.70;;;11.30;;
69083;SDS011;56185;48.526;9.044;2024-02-28T07:11:33;20.58;;;11.82;;
69083;SDS011;56185;48.526;9.044;2024-02-28T07:13:59;17.67;;;11.50;;
69083;SDS011;56185;48.526;9.044;2024-02-28T07:16:24;18.98;;;11.77;;
69083;SDS011;56185;48.526;9.044;2024-02-28T07:18:49;20.97;;;12.10;;
69083;SDS011;56185;48.526;9.044;2024-02-28T07:21:14;19.63;;;11.60;;
69083;SDS011;56185;48.526;9.044;2024-02-28T07:23:40;21.93;;;11.90;;
69083;SDS011;56185;48.526;9.044;2024-02-28T07:26:05;19.67;;;11.73;;
69083;SDS011;56185;48.526;9.044;2024-02-28T07:28:31;20.55;;;12.52;;
69083;SDS011;56185;48.526;9.044;2024-02-28T07:30:56;19.63;;;12.13;;
69083;SDS011;56185;48.526;9.044;2024-02-28T07:33:21;20.37;;;11.33;;
69083;SDS011;56185;48.526;9.044;2024-02-28T07:35:46;20.23;;;12.17;;
69083;SDS011;56185;48.526;9.044;2024-02-28T07:38:12;19.70;;;11.85;;
69083;SDS011;56185;48.526;9.044;2024-02-28T07:40:37;17.25;;;10.63;;
69083;SDS011;56185;48.526;9.044;2024-02-28T07:43:03;22.33;;;13.18;;
69083;SDS011;56185;48.526;9.044;2024-02-28T07:45:28;20.20;;;12.57;;
69083;SDS011;56185;48.526;9.044;2024-02-28T07:47:53;17.98;;;11.43;;
69083;SDS011;56185;48.526;9.044;2024-02-28T07:50:19;19.87;;;11.67;;
69083;SDS011;56185;48.526;9.044;2024-02-28T07:52:44;21.87;;;12.37;;
69083;SDS011;56185;48.526;9.044;2024-02-28T07:55:09;20.40;;;12.20;;
69083;SDS011;56185;48.526;9.044;2024-02-28T07:57:34;24.17;;;12.33;;
69083;SDS011;56185;48.526;9.044;2024-02-28T08:00:00;20.65;;;11.75;;
69083;SDS011;56185;48.526;9.044;2024-02-28T08:02:25;20.25;;;12.50;;
69083;SDS011;56185;48.526;9.044;2024-02-28T08:04:50;21.23;;;11.53;;
69083;SDS011;56185;48.526;9.044;2024-02-28T08:07:15;19.33;;;11.43;;
69083;SDS011;56185;48.526;9.044;2024-02-28T08:09:41;22.15;;;12.10;;
69083;SDS011;56185;48.526;9.044;2024-02-28T08:12:06;20.27;;;11.83;;
69083;SDS011;56185;48.526;9.044;2024-02-28T08:14:31;20.33;;;12.15;;
69083;SDS011;56185;48.526;9.044;2024-02-28T08:16:57;19.95;;;11.50;;
69083;SDS011;56185;48.526;9.044;2024-02-28T08:19:22;19.87;;;12.27;;
69083;SDS011;56185;48.526;9.044;2024-02-28T08:21:47;19.60;;;12.00;;
69083;SDS011;56185;48.526;9.044;2024-02-28T08:24:12;20.70;;;12.48;;
69083;SDS011;56185;48.526;9.044;2024-02-28T08:26:38;22.80;;;11.75;;
69083;SDS011;56185;48.526;9.044;2024-02-28T08:29:03;21.50;;;12.17;;
69083;SDS011;56185;48.526;9.044;2024-02-28T08:31:28;20.63;;;11.70;;
69083;SDS011;56185;48.526;9.044;2024-02-28T08:33:54;19.10;;;11.35;;
69083;SDS011;56185;48.526;9.044;2024-02-28T08:36:19;20.60;;;11.03;;
69083;SDS011;56185;48.526;9.044;2024-02-28T08:38:44;19.77;;;10.95;;
69083;SDS011;56185;48.526;9.044;2024-02-28T08:41:09;24.63;;;12.43;;
69083;SDS011;56185;48.526;9.044;2024-02-28T08:43:38;20.35;;;12.23;;
69083;SDS011;56185;48.526;9.044;2024-02-28T08:46:04;23.98;;;12.52;;
69083;SDS011;56185;48.526;9.044;2024-02-28T08:48:32;21.38;;;11.75;;
69083;SDS011;56185;48.526;9.044;2024-02-28T08:50:58;20.65;;;11.50;;
69083;SDS011;56185;48.526;9.044;2024-02-28T08:53:23;20.35;;;11.70;;
69083;SDS011;56185;48.526;9.044;2024-02-28T08:55:48;19.97;;;11.80;;
69083;SDS011;56185;48.526;9.044;2024-02-28T08:58:13;16.97;;;11.00;;
69083;SDS011;56185;48.526;9.044;2024-02-28T09:00:39;21.13;;;12.27;;
69083;SDS011;56185;48.526;9.044;2024-02-28T09:03:04;18.88;;;11.05;;
69083;SDS011;56185;48.526;9.044;2024-02-28T09:05:29;20.73;;;11.23;;
69083;SDS011;56185;48.526;9.044;2024-02-28T09:07:55;20.73;;;11.88;;
69083;SDS011;56185;48.526;9.044;2024-02-28T09:10:20;18.33;;;11.55;;
69083;SDS011;56185;48.526;9.044;2024-02-28T09:12:45;18.65;;;11.10;;
69083;SDS011;56185;48.526;9.044;2024-02-28T09:15:10;19.10;;;10.97;;
69083;SDS011;56185;48.526;9.044;2024-02-28T09:17:36;18.90;;;11.15;;
69083;SDS011;56185;48.526;9.044;2024-02-28T09:20:01;18.13;;;10.63;;
69083;SDS011;56185;48.526;9.044;2024-02-28T09:22:26;18.63;;;11.48;;
69083;SDS011;56185;48.526;9.044;2024-02-28T09:24:51;16.10;;;10.00;;
69083;SDS011;56185;48.526;9.044;2024-02-28T09:27:17;16.50;;;10.97;;
69083;SDS011;56185;48.526;9.044;2024-02-28T09:29:42;17.27;;;10.50;;
69083;SDS011;56185;48.526;9.044;2024-02-28T09:32:07;16.57;;;10.73;;
69083;SDS011;56185;48.526;9.044;2024-02-28T09:34:32;18.17;;;11.07;;
69083;SDS011;56185;48.526;9.044;2024-02-28T09:36:58;18.47;;;10.70;;
69083;SDS011;56185;48.526;9.044;2024-02-28T09:39:23;19.47;;;10.83;;
69083;SDS011;56185;48.526;9.044;2024-02-28T09:41:48;17.33;;;11.20;;
69083;SDS011;56185;48.526;9.044;2024-02-28T09:44:13;17.35;;;10.60;;
69083;SDS011;56185;48.526;9.044;2024-02-28T09:46:40;18.95;;;11.02;;
69083;SDS011;56185;48.526;9.044;2024-02-28T09:49:09;16.83;;;11.05;;
69083;SDS011;56185;48.526;9.044;2024-02-28T09:51:35;17.85;;;11.55;;
69083;SDS011;56185;48.526;9.044;2024-02-28T09:54:04;18.83;;;10.60;;
69083;SDS011;56185;48.526;9.044;2024-02-28T09:56:33;17.73;;;10.98;;
69083;SDS011;56185;48.526;9.044;2024-02-28T09:58:59;18.08;;;11.32;;
69083;SDS011;56185;48.526;9.044;2024-02-28T10:01:25;21.38;;;11.55;;
69083;SDS011;56185;48.526;9.044;2024-02-28T10:03:51;19.73;;;11.98;;
69083;SDS011;56185;48.526;9.044;2024-02-28T10:06:17;17.77;;;10.93;;
69083;SDS011;56185;48.526;9.044;2024-02-28T10:08:42;22.23;;;10.55;;
69083;SDS011;56185;48.526;9.044;2024-02-28T10:11:07;19.37;;;11.07;;
69083;SDS011;56185;48.526;9.044;2024-02-28T10:13:33;19.50;;;11.17;;
69083;SDS011;56185;48.526;9.044;2024-02-28T10:15:58;19.25;;;10.65;;
69083;SDS011;56185;48.526;9.044;2024-02-28T10:18:25;17.15;;;10.45;;
69083;SDS011;56185;48.526;9.044;2024-02-28T10:20:50;20.85;;;11.52;;
69083;SDS011;56185;48.526;9.044;2024-02-28T10:23:16;18.10;;;11.43;;
69083;SDS011;56185;48.526;9.044;2024-02-28T10:25:42;22.17;;;11.52;;
69083;SDS011;56185;48.526;9.044;2024-02-28T10:28:09;17.77;;;10.95;;
69083;SDS011;56185;48.526;9.044;2024-02-28T10:30:38;18.10;;;10.10;;
69083;SDS011;56185;48.526;9.044;2024-02-28T10:33:05;17.35;;;10.05;;
69083;SDS011;56185;48.526;9.044;2024-02-28T10:35:34;18.80;;;10.93;;
69083;SDS011;56185;48.526;9.044;2024-02-28T10:37:59;17.63;;;10.63;;
69083;SDS011;56185;48.526;9.044;2024-02-28T10:40:24;15.52;;;10.07;;
69083;SDS011;56185;48.526;9.044;2024-02-28T10:42:50;17.63;;;11.20;;
69083;SDS011;56185;48.526;9.044;2024-02-28T10:45:17;19.17;;;11.05;;
69083;SDS011;56185;48.526;9.044;2024-02-28T10:47:42;17.48;;;10.98;;
69083;SDS011;56185;48.526;9.044;2024-02-28T10:50:08;17.33;;;10.68;;
69083;SDS011;56185;48.526;9.044;2024-02-28T10:52:33;19.05;;;10.95;;
69083;SDS011;56185;48.526;9.044;2024-02-28T10:55:01;21.88;;;11.57;;
69083;SDS011;56185;48.526;9.044;2024-02-28T10:57:27;19.33;;;11.65;;
69083;SDS011;56185;48.526;9.044;2024-02-28T10:59:55;17.13;;;10.38;;
69083;SDS011;56185;48.526;9.044;2024-02-28T11:02:22;18.60;;;11.18;;
69083;SDS011;56185;48.526;9.044;2024-02-28T11:04:51;17.75;;;11.43;;
69083;SDS011;56185;48.526;9.044;2024-02-28T11:07:20;17.52;;;10.80;;
69083;SDS011;56185;48.526;9.044;2024-02-28T11:09:45;17.05;;;11.07;;
69083;SDS011;56185;48.526;9.044;2024-02-28T11:12:23;17.75;;;11.07;;
69083;SDS011;56185;48.526;9.044;2024-02-28T11:14:56;16.80;;;11.10;;
69083;SDS011;56185;48.526;9.044;2024-02-28T11:17:30;16.25;;;10.00;;
69083;SDS011;56185;48.526;9.044;2024-02-28T11:19:55;19.92;;;10.93;;
69083;SDS011;56185;48.526;9.044;2024-02-28T11:22:21;17.88;;;10.48;;
69083;SDS011;56185;48.526;9.044;2024-02-28T11:24:47;18.17;;;10.68;;
69083;SDS011;56185;48.526;9.044;2024-02-28T11:27:12;19.92;;;11.25;;
69083;SDS011;56185;48.526;9.044;2024-02-28T11:29:38;19.92;;;10.77;;
69083;SDS011;56185;48.526;9.044;2024-02-28T11:32:03;18.50;;;10.38;;
69083;SDS011;56185;48.526;9.044;2024-02-28T11:34:29;18.35;;;10.65;;
69083;SDS011;56185;48.526;9.044;2024-02-28T11:36:54;17.67;;;11.10;;
69083;SDS011;56185;48.526;9.044;2024-02-28T11:39:19;18.10;;;10.40;;
69083;SDS011;56185;48.526;9.044;2024-02-28T11:41:44;19.83;;;11.17;;
69083;SDS011;56185;48.526;9.044;2024-02-28T11:44:10;19.38;;;10.45;;
69083;SDS011;56185;48.526;9.044;2024-02-28T11:46:35;19.20;;;11.47;;
69083;SDS011;56185;48.526;9.044;2024-02-28T11:49:01;18.38;;;10.35;;
69083;SDS011;56185;48.526;9.044;2024-02-28T11:51:26;19.88;;;11.10;;
69083;SDS011;56185;48.526;9.044;2024-02-28T11:53:51;17.90;;;10.60;;
69083;SDS011;56185;48.526;9.044;2024-02-28T11:56:16;20.67;;;10.55;;
69083;SDS011;56185;48.526;9.044;2024-02-28T11:58:52;17.70;;;10.95;;
69083;SDS011;56185;48.526;9.044;2024-02-28T12:01:17;17.55;;;10.15;;
69083;SDS011;56185;48.526;9.044;2024-02-28T12:03:46;17.83;;;10.15;;
69083;SDS011;56185;48.526;9.044;2024-02-28T12:06:11;17.48;;;9.68;;
69083;SDS011;56185;48.526;9.044;2024-02-28T12:08:37;15.90;;;9.93;;
69083;SDS011;56185;48.526;9.044;2024-02-28T12:11:06;17.70;;;9.77;;
69083;SDS011;56185;48.526;9.044;2024-02-28T12:13:32;15.02;;;9.75;;
69083;SDS011;56185;48.526;9.044;2024-02-28T12:15:57;14.57;;;8.77;;
69083;SDS011;56185;48.526;9.044;2024-02-28T12:18:22;14.53;;;9.03;;
69083;SDS011;56185;48.526;9.044;2024-02-28T12:20:47;15.53;;;9.27;;
69083;SDS011;56185;48.526;9.044;2024-02-28T12:23:13;15.05;;;9.18;;
69083;SDS011;56185;48.526;9.044;2024-02-28T12:25:38;13.23;;;9.10;;
69083;SDS011;56185;48.526;9.044;2024-02-28T12:28:03;13.93;;;8.67;;
69083;SDS011;56185;48.526;9.044;2024-02-28T12:30:29;14.20;;;9.27;;
69083;SDS011;56185;48.526;9.044;2024-02-28T12:32:54;16.37;;;9.73;;
69083;SDS011;56185;48.526;9.044;2024-02-28T12:35:19;14.13;;;9.30;;
69083;SDS011;56185;48.526;9.044;2024-02-28T12:37:44;14.87;;;9.13;;
69083;SDS011;56185;48.526;9.044;2024-02-28T12:40:10;15.50;;;9.77;;
69083;SDS011;56185;48.526;9.044;2024-02-28T12:42:35;14.98;;;9.02;;
69083;SDS011;56185;48.526;9.044;2024-02-28T12:45:00;15.17;;;9.20;;
69083;SDS011;56185;48.526;9.044;2024-02-28T12:47:26;14.63;;;9.13;;
69083;SDS011;56185;48.526;9.044;2024-02-28T12:49:51;13.60;;;8.93;;
69083;SDS011;56185;48.526;9.044;2024-02-28T12:52:18;15.30;;;9.38;;
69083;SDS011;56185;48.526;9.044;2024-02-28T12:54:44;15.73;;;9.60;;
69083;SDS011;56185;48.526;9.044;2024-02-28T12:57:09;15.53;;;9.40;;
69083;SDS011;56185;48.526;9.044;2024-02-28T12:59:34;15.60;;;9.40;;
69083;SDS011;56185;48.526;9.044;2024-02-28T13:01:59;15.87;;;10.00;;
69083;SDS011;56185;48.526;9.044;2024-02-28T13:04:25;17.15;;;9.77;;
69083;SDS011;56185;48.526;9.044;2024-02-28T13:06:50;13.90;;;9.30;;
69083;SDS011;56185;48.526;9.044;2024-02-28T13:09:15;14.15;;;9.45;;
69083;SDS011;56185;48.526;9.044;2024-02-28T13:11:41;14.90;;;9.20;;
69083;SDS011;56185;48.526;9.044;2024-02-28T13:14:06;14.18;;;9.52;;
69083;SDS011;56185;48.526;9.044;2024-02-28T13:16:31;15.67;;;9.53;;
69083;SDS011;56185;48.526;9.044;2024-02-28T13:18:56;18.15;;;8.98;;
69083;SDS011;56185;48.526;9.044;2024-02-28T13:21:24;16.00;;;8.63;;
69083;SDS011;56185;48.526;9.044;2024-02-28T13:23:50;14.80;;;8.70;;
69083;SDS011;56185;48.526;9.044;2024-02-28T13:26:33;13.55;;;8.73;;
69083;SDS011;56185;48.526;9.044;2024-02-28T13:29:01;13.38;;;8.80;;
69083;SDS011;56185;48.526;9.044;2024-02-28T13:31:45;13.90;;;8.90;;
69083;SDS011;56185;48.526;9.044;2024-02-28T13:34:10;13.93;;;8.73;;
69083;SDS011;56185;48.526;9.044;2024-02-28T13:36:44;15.30;;;9.30;;
69083;SDS011;56185;48.526;9.044;2024-02-28T13:39:10;14.50;;;9.60;;
69083;SDS011;56185;48.526;9.044;2024-02-28T13:41:35;14.43;;;9.20;;
69083;SDS011;56185;48.526;9.044;2024-02-28T13:44:00;15.20;;;9.50;;
69083;SDS011;56185;48.526;9.044;2024-02-28T13:46:25;12.07;;;8.00;;
69083;SDS011;56185;48.526;9.044;2024-02-28T13:48:52;12.57;;;8.20;;
69083;SDS011;56185;48.526;9.044;2024-02-28T13:51:19;15.55;;;8.93;;
69083;SDS011;56185;48.526;9.044;2024-02-28T13:53:45;16.00;;;9.25;;
69083;SDS011;56185;48.526;9.044;2024-02-28T13:56:19;14.35;;;8.75;;
69083;SDS011;56185;48.526;9.044;2024-02-28T13:58:47;17.65;;;9.10;;
69083;SDS011;56185;48.526;9.044;2024-02-28T14:01:13;12.55;;;8.73;;
69083;SDS011;56185;48.526;9.044;2024-02-28T14:03:38;13.82;;;8.85;;
69083;SDS011;56185;48.526;9.044;2024-02-28T14:06:04;17.17;;;9.65;;
69083;SDS011;56185;48.526;9.044;2024-02-28T14:08:29;16.27;;;9.70;;
69083;SDS011;56185;48.526;9.044;2024-02-28T14:10:55;13.85;;;9.23;;
69083;SDS011;56185;48.526;9.044;2024-02-28T14:13:20;15.70;;;9.57;;
69083;SDS011;56185;48.526;9.044;2024-02-28T14:15:46;15.02;;;9.05;;